Time;durP1;ratioP1;P1;durP2;ratioP2;P2;SDS_P1;SDS_P2;PMS_P1;PMS_P2;Temp;Humidity;BMP_temperature;BMP_pressure;BME280_temperature;BME280_humidity;BME280_pressure;Samples;Min_cycle;Max_cycle;Signal;HPM_P1;HPM_P2
2024/01/21 00:03:49;;;;;;;5.50;3.33;;;;;;;;;;10342072;28;21237;-52
2024/01/21 00:08:50;;;;;;;9.43;3.53;;;;;;;;;;10347666;28;20486;-50
2024/01/21 00:13:50;;;;;;;5.63;4.05;;;;;;;;;;10282185;28;20065;-49
2024/01/21 00:18:51;;;;;;;5.00;3.80;;;;;;;;;;10225859;28;20069;-51
2024/01/21 00:23:51;;;;;;;5.30;3.47;;;;;;;;;;10256098;28;20041;-48
2024/01/21 00:28:52;;;;;;;5.95;3.60;;;;;;;;;;10343263;28;20036;-49
2024/01/21 00:33:53;;;;;;;4.57;3.30;;;;;;;;;;10334639;28;20041;-48
2024/01/21 00:38:54;;;;;;;5.15;3.85;;;;;;;;;;10342280;28;20494;-50
2024/01/21 00:43:54;;;;;;;3.80;3.35;;;;;;;;;;10347561;28;20034;-51
2024/01/21 00:48:55;;;;;;;7.75;3.63;;;;;;;;;;10343875;28;20018;-51
2024/01/21 00:53:56;;;;;;;5.15;3.80;;;;;;;;;;10303458;28;20026;-52
2024/01/21 00:58:57;;;;;;;4.65;3.80;;;;;;;;;;10335385;28;20030;-52
2024/01/21 01:03:57;;;;;;;5.50;3.53;;;;;;;;;;10306966;28;20386;-53
2024/01/21 01:08:58;;;;;;;5.95;3.65;;;;;;;;;;10340393;28;20268;-54
2024/01/21 01:13:58;;;;;;;4.60;3.42;;;;;;;;;;10337514;28;20085;-53
2024/01/21 01:18:59;;;;;;;6.32;4.18;;;;;;;;;;10345316;28;20025;-53
2024/01/21 01:23:59;;;;;;;6.63;3.63;;;;;;;;;;10326042;28;20030;-53
2024/01/21 01:29:00;;;;;;;6.38;3.67;;;;;;;;;;10316400;28;20191;-54
2024/01/21 01:34:01;;;;;;;16.45;3.42;;;;;;;;;;10253484;28;20135;-53
2024/01/21 01:39:01;;;;;;;8.13;3.95;;;;;;;;;;10221348;28;20156;-55
2024/01/21 01:44:02;;;;;;;5.72;3.42;;;;;;;;;;10246134;28;20033;-53
2024/01/21 01:49:03;;;;;;;7.00;3.45;;;;;;;;;;10323962;28;20049;-55
2024/01/21 01:54:05;;;;;;;4.10;3.25;;;;;;;;;;10329049;28;20444;-54
2024/01/21 01:59:10;;;;;;;4.63;3.40;;;;;;;;;;10298115;28;20030;-55
2024/01/21 02:04:11;;;;;;;4.50;3.38;;;;;;;;;;10322518;28;20029;-53
2024/01/21 02:09:12;;;;;;;5.10;3.65;;;;;;;;;;10324135;28;20385;-54
2024/01/21 02:14:12;;;;;;;4.18;3.20;;;;;;;;;;10281757;28;20022;-53
2024/01/21 02:19:27;;;;;;;4.75;3.70;;;;;;;;;;10320801;28;20398;-54
2024/01/21 02:24:30;;;;;;;6.05;3.40;;;;;;;;;;10328093;28;20061;-54
2024/01/21 02:29:31;;;;;;;8.25;3.20;;;;;;;;;;10326438;28;20077;-51
2024/01/21 02:34:31;;;;;;;4.70;3.38;;;;;;;;;;10328572;28;20554;-54
2024/01/21 02:39:32;;;;;;;4.95;3.13;;;;;;;;;;10311589;28;20221;-51
2024/01/21 02:44:32;;;;;;;4.32;2.97;;;;;;;;;;10320945;28;20035;-48
2024/01/21 02:49:33;;;;;;;4.30;3.28;;;;;;;;;;10320816;28;20042;-51
2024/01/21 02:54:33;;;;;;;6.82;3.78;;;;;;;;;;10318239;28;20034;-54
2024/01/21 02:59:34;;;;;;;3.38;2.83;;;;;;;;;;10325746;28;20030;-52
2024/01/21 03:04:34;;;;;;;3.28;2.90;;;;;;;;;;10326141;28;20137;-52
2024/01/21 03:09:35;;;;;;;3.88;3.17;;;;;;;;;;10327518;28;20026;-53
2024/01/21 03:14:36;;;;;;;4.22;3.13;;;;;;;;;;10329478;28;20038;-52
2024/01/21 03:19:36;;;;;;;5.88;3.38;;;;;;;;;;10327916;28;20050;-54
2024/01/21 03:24:37;;;;;;;4.10;3.25;;;;;;;;;;10326514;28;20037;-51
2024/01/21 03:29:38;;;;;;;5.15;3.38;;;;;;;;;;10333088;28;20080;-52
2024/01/21 03:34:42;;;;;;;5.38;3.17;;;;;;;;;;10314364;28;20037;-52
2024/01/21 03:39:42;;;;;;;4.47;3.30;;;;;;;;;;10332608;28;20057;-52
2024/01/21 03:44:43;;;;;;;4.57;3.30;;;;;;;;;;10334991;28;20034;-50
2024/01/21 03:49:44;;;;;;;4.05;2.90;;;;;;;;;;10329084;28;20122;-53
2024/01/21 03:54:45;;;;;;;3.85;3.03;;;;;;;;;;10320769;28;20029;-55
2024/01/21 04:00:08;;;;;;;3.28;2.78;;;;;;;;;;10322627;28;20042;-52
2024/01/21 04:05:09;;;;;;;3.42;2.83;;;;;;;;;;10272774;28;20046;-52
2024/01/21 04:10:10;;;;;;;3.92;2.85;;;;;;;;;;10267666;28;20043;-54
2024/01/21 04:15:11;;;;;;;5.18;3.25;;;;;;;;;;10265788;28;20051;-49
2024/01/21 04:20:11;;;;;;;8.30;4.70;;;;;;;;;;10263729;28;20483;-51
2024/01/21 04:25:12;;;;;;;12.15;4.30;;;;;;;;;;10272419;28;20085;-52
2024/01/21 04:30:13;;;;;;;9.63;4.85;;;;;;;;;;10277069;28;20458;-52
2024/01/21 04:35:13;;;;;;;7.03;4.68;;;;;;;;;;10273559;28;20126;-52
2024/01/21 04:40:14;;;;;;;11.25;5.00;;;;;;;;;;10291152;28;20478;-47
2024/01/21 04:45:16;;;;;;;11.30;6.07;;;;;;;;;;10309495;28;20031;-51
2024/01/21 04:50:17;;;;;;;8.50;5.75;;;;;;;;;;10318653;28;20038;-53
2024/01/21 04:55:17;;;;;;;6.97;5.40;;;;;;;;;;10315728;28;20032;-50
2024/01/21 05:00:19;;;;;;;7.75;5.72;;;;;;;;;;10318186;28;20034;-51
2024/01/21 05:05:19;;;;;;;12.40;5.30;;;;;;;;;;10324748;28;20030;-51
2024/01/21 05:10:20;;;;;;;6.88;5.03;;;;;;;;;;10324457;28;20027;-51
2024/01/21 05:15:20;;;;;;;6.80;5.20;;;;;;;;;;10324029;28;20018;-50
2024/01/21 05:20:21;;;;;;;6.90;5.47;;;;;;;;;;10324809;28;20082;-50
2024/01/21 05:25:21;;;;;;;7.00;5.00;;;;;;;;;;10324081;28;20030;-51
2024/01/21 05:30:22;;;;;;;5.80;5.20;;;;;;;;;;10322911;28;20030;-49
2024/01/21 05:35:23;;;;;;;8.32;5.45;;;;;;;;;;10325497;28;20269;-46
2024/01/21 05:40:25;;;;;;;6.45;5.10;;;;;;;;;;10323387;28;20026;-48
2024/01/21 05:45:26;;;;;;;5.25;4.75;;;;;;;;;;10323168;28;20026;-46
2024/01/21 05:50:26;;;;;;;8.02;4.85;;;;;;;;;;10324318;28;20402;-47
2024/01/21 05:55:27;;;;;;;7.55;5.28;;;;;;;;;;10323856;28;20038;-50
2024/01/21 06:00:27;;;;;;;5.70;4.60;;;;;;;;;;10330374;28;20018;-47
2024/01/21 06:05:28;;;;;;;6.40;4.88;;;;;;;;;;10330742;28;20042;-47
2024/01/21 06:10:28;;;;;;;8.55;4.90;;;;;;;;;;10330382;28;20089;-51
2024/01/21 06:15:29;;;;;;;8.60;4.70;;;;;;;;;;10337888;28;20053;-46
2024/01/21 06:20:29;;;;;;;6.60;5.13;;;;;;;;;;10336024;28;20030;-47
2024/01/21 06:25:30;;;;;;;6.47;4.43;;;;;;;;;;10330104;28;20022;-47
2024/01/21 06:30:31;;;;;;;5.88;4.35;;;;;;;;;;10331053;28;20026;-51
2024/01/21 06:35:31;;;;;;;6.35;4.65;;;;;;;;;;10331862;28;20043;-51
2024/01/21 06:40:32;;;;;;;5.10;4.43;;;;;;;;;;10330235;28;20437;-47
2024/01/21 06:45:32;;;;;;;6.60;4.57;;;;;;;;;;10329945;28;20402;-49
2024/01/21 06:50:33;;;;;;;6.40;4.45;;;;;;;;;;10329150;28;20449;-50
2024/01/21 06:55:34;;;;;;;7.20;4.13;;;;;;;;;;10330657;28;20030;-49
2024/01/21 07:00:34;;;;;;;7.70;4.50;;;;;;;;;;10328528;28;20041;-51
2024/01/21 07:05:35;;;;;;;6.00;4.38;;;;;;;;;;10329138;28;20034;-49
2024/01/21 07:10:35;;;;;;;6.70;4.47;;;;;;;;;;10328481;28;20022;-51
2024/01/21 07:15:36;;;;;;;6.10;4.45;;;;;;;;;;10328010;28;20031;-51
2024/01/21 07:20:36;;;;;;;5.45;4.25;;;;;;;;;;10330932;28;20087;-49
2024/01/21 07:25:37;;;;;;;5.75;4.45;;;;;;;;;;10333265;28;20054;-50
2024/01/21 07:30:37;;;;;;;6.05;4.40;;;;;;;;;;10327148;28;20088;-52
2024/01/21 07:35:38;;;;;;;7.93;4.07;;;;;;;;;;10327728;28;20045;-51
2024/01/21 07:40:39;;;;;;;5.75;4.03;;;;;;;;;;10328335;28;20548;-50
2024/01/21 07:45:39;;;;;;;5.07;4.10;;;;;;;;;;10327616;28;20393;-48
2024/01/21 07:50:40;;;;;;;6.20;3.85;;;;;;;;;;10327676;28;20033;-59
2024/01/21 07:55:40;;;;;;;5.22;3.60;;;;;;;;;;10327682;28;20026;-50
2024/01/21 08:00:45;;;;;;;6.78;4.20;;;;;;;;;;10325129;28;20034;-48
2024/01/21 08:05:45;;;;;;;5.40;4.20;;;;;;;;;;10326568;28;20498;-52
2024/01/21 08:10:46;;;;;;;5.55;4.32;;;;;;;;;;10335049;28;20107;-52
2024/01/21 08:15:46;;;;;;;4.80;3.80;;;;;;;;;;10343071;28;20034;-51
2024/01/21 08:20:47;;;;;;;6.95;4.93;;;;;;;;;;10341537;28;20034;-51
2024/01/21 08:25:48;;;;;;;6.15;4.88;;;;;;;;;;10345077;28;20037;-51
2024/01/21 08:30:49;;;;;;;8.77;4.28;;;;;;;;;;10342180;28;20034;-51
2024/01/21 08:35:50;;;;;;;10.75;4.95;;;;;;;;;;10336707;28;20395;-51
2024/01/21 08:40:50;;;;;;;9.02;4.50;;;;;;;;;;10345785;28;20030;-49
2024/01/21 08:45:51;;;;;;;15.27;5.50;;;;;;;;;;10330188;28;20037;-49
2024/01/21 08:50:52;;;;;;;13.82;5.00;;;;;;;;;;10327820;28;20031;-48
2024/01/21 08:55:52;;;;;;;8.52;5.05;;;;;;;;;;10316571;28;20034;-48
2024/01/21 09:00:53;;;;;;;7.40;4.85;;;;;;;;;;10322428;28;20034;-49
2024/01/21 09:05:53;;;;;;;8.38;4.93;;;;;;;;;;10325696;28;20088;-49
2024/01/21 09:10:54;;;;;;;8.15;4.70;;;;;;;;;;10327203;28;20037;-49
2024/01/21 09:15:55;;;;;;;9.10;4.80;;;;;;;;;;10325688;28;20022;-51
2024/01/21 09:20:58;;;;;;;7.22;4.93;;;;;;;;;;10326158;28;20065;-50
2024/01/21 09:25:58;;;;;;;6.72;4.75;;;;;;;;;;10327193;28;20062;-50
2024/01/21 09:30:59;;;;;;;9.63;4.57;;;;;;;;;;10326206;28;20034;-51
2024/01/21 09:36:00;;;;;;;7.93;4.85;;;;;;;;;;10332968;28;20062;-50
2024/01/21 09:41:13;;;;;;;5.75;4.63;;;;;;;;;;10333706;28;20033;-51
2024/01/21 09:46:13;;;;;;;6.68;4.65;;;;;;;;;;10333660;28;20045;-50
2024/01/21 09:51:14;;;;;;;7.07;4.70;;;;;;;;;;10333884;28;20474;-50
2024/01/21 09:56:17;;;;;;;6.45;4.70;;;;;;;;;;10331709;28;20034;-47
2024/01/21 10:01:18;;;;;;;9.18;4.50;;;;;;;;;;10331749;28;20109;-48
2024/01/21 10:06:20;;;;;;;8.25;5.43;;;;;;;;;;10343907;28;20537;-50
2024/01/21 10:11:20;;;;;;;7.18;4.47;;;;;;;;;;10330259;28;20034;-47
2024/01/21 10:16:21;;;;;;;6.65;4.43;;;;;;;;;;10331762;28;20023;-50
2024/01/21 10:21:22;;;;;;;5.78;4.68;;;;;;;;;;10330963;28;20462;-46
2024/01/21 10:26:22;;;;;;;6.25;4.18;;;;;;;;;;10331093;28;20394;-50
2024/01/21 10:31:23;;;;;;;6.63;4.70;;;;;;;;;;10331771;28;20027;-51
2024/01/21 10:36:26;;;;;;;8.00;4.22;;;;;;;;;;10330236;28;20096;-51
2024/01/21 10:41:31;;;;;;;6.95;4.15;;;;;;;;;;10330424;28;20054;-50
2024/01/21 10:46:33;;;;;;;5.78;4.28;;;;;;;;;;10328926;28;20033;-51
2024/01/21 10:51:34;;;;;;;5.20;4.30;;;;;;;;;;10328695;28;20030;-49
2024/01/21 10:56:35;;;;;;;8.05;4.90;;;;;;;;;;10329096;28;20077;-50
2024/01/21 11:01:39;;;;;;;5.15;4.03;;;;;;;;;;10328062;28;20019;-49
2024/01/21 11:06:44;;;;;;;6.45;4.18;;;;;;;;;;10328709;28;20431;-53
2024/01/21 11:11:50;;;;;;;7.13;4.30;;;;;;;;;;10328671;28;20049;-48
2024/01/21 11:16:54;;;;;;;6.05;4.10;;;;;;;;;;10328444;28;20061;-53
2024/01/21 11:21:55;;;;;;;5.00;4.00;;;;;;;;;;10328812;28;20030;-48
2024/01/21 11:27:00;;;;;;;5.60;4.13;;;;;;;;;;10329067;28;20022;-51
2024/01/21 11:32:08;;;;;;;5.22;4.22;;;;;;;;;;10327749;28;20026;-50
2024/01/21 11:37:14;;;;;;;6.00;4.05;;;;;;;;;;10332536;28;20096;-48
2024/01/21 11:42:16;;;;;;;7.65;3.90;;;;;;;;;;10338037;28;20030;-48
2024/01/21 11:47:17;;;;;;;6.13;4.05;;;;;;;;;;10337211;28;20462;-49
2024/01/21 11:52:19;;;;;;;5.85;3.75;;;;;;;;;;10337087;28;20026;-51
2024/01/21 11:57:20;;;;;;;4.97;3.92;;;;;;;;;;10336034;28;20034;-52
2024/01/21 12:02:22;;;;;;;5.28;3.80;;;;;;;;;;10335952;28;20351;-51
2024/01/21 12:07:25;;;;;;;5.82;3.75;;;;;;;;;;10336435;28;20026;-52
2024/01/21 12:12:27;;;;;;;3.72;3.42;;;;;;;;;;10335110;28;20041;-49
2024/01/21 12:17:29;;;;;;;5.05;3.83;;;;;;;;;;10336010;28;20057;-47
2024/01/21 12:22:45;;;;;;;6.88;3.70;;;;;;;;;;10335867;28;20528;-51
2024/01/21 12:27:54;;;;;;;3.80;3.28;;;;;;;;;;10336308;28;20409;-49
2024/01/21 12:32:56;;;;;;;4.07;3.63;;;;;;;;;;10336146;28;20109;-50
2024/01/21 12:37:59;;;;;;;7.10;3.83;;;;;;;;;;10335315;28;20053;-46
2024/01/21 12:43:01;;;;;;;5.20;3.20;;;;;;;;;;10335581;28;20038;-47
2024/01/21 12:48:04;;;;;;;5.05;3.70;;;;;;;;;;10334800;28;20050;-47
2024/01/21 12:53:06;;;;;;;4.32;3.53;;;;;;;;;;10334784;28;20102;-46
2024/01/21 12:58:12;;;;;;;4.88;3.60;;;;;;;;;;10335198;28;20350;-48
2024/01/21 13:03:18;;;;;;;4.80;3.40;;;;;;;;;;10334540;28;20034;-46
2024/01/21 13:08:20;;;;;;;5.75;3.65;;;;;;;;;;10334395;28;20105;-46
2024/01/21 13:13:22;;;;;;;4.43;3.50;;;;;;;;;;10334271;28;20093;-46
2024/01/21 13:18:23;;;;;;;9.82;3.30;;;;;;;;;;10334136;28;20038;-46
2024/01/21 13:23:25;;;;;;;4.68;3.58;;;;;;;;;;10333910;28;20034;-48
2024/01/21 13:33:28;;;;;;;4.45;3.25;;;;;;;;;;10335543;28;20030;-49
2024/01/21 13:38:33;;;;;;;4.88;3.67;;;;;;;;;;10333446;28;20133;-52
2024/01/21 13:43:36;;;;;;;4.05;3.17;;;;;;;;;;10333485;28;20465;-55
2024/01/21 13:48:37;;;;;;;6.05;2.95;;;;;;;;;;10333492;28;20369;-50
2024/01/21 13:53:39;;;;;;;3.30;3.00;;;;;;;;;;10332333;28;20109;-48
2024/01/21 13:58:40;;;;;;;7.45;3.55;;;;;;;;;;10333265;28;20034;-52
2024/01/21 14:03:42;;;;;;;4.28;3.20;;;;;;;;;;10333166;28;20061;-48
2024/01/21 14:08:44;;;;;;;4.18;3.25;;;;;;;;;;10333070;28;20089;-51
2024/01/21 14:13:46;;;;;;;3.28;2.70;;;;;;;;;;10331867;28;20390;-51
2024/01/21 14:18:48;;;;;;;3.92;2.97;;;;;;;;;;10335021;28;20033;-49
2024/01/21 14:23:52;;;;;;;5.53;3.30;;;;;;;;;;10340438;28;20037;-49
2024/01/21 14:28:58;;;;;;;4.18;2.83;;;;;;;;;;10340131;28;20026;-51
2024/01/21 14:33:59;;;;;;;2.90;2.58;;;;;;;;;;10340154;28;20482;-51
2024/01/21 14:39:01;;;;;;;4.53;3.05;;;;;;;;;;10339833;28;20095;-52
2024/01/21 14:44:03;;;;;;;4.78;3.30;;;;;;;;;;10340219;28;20038;-47
2024/01/21 14:49:05;;;;;;;5.18;3.30;;;;;;;;;;10339507;28;20493;-50
2024/01/21 14:54:06;;;;;;;4.30;3.10;;;;;;;;;;10339949;28;20022;-52
2024/01/21 14:59:08;;;;;;;4.85;3.35;;;;;;;;;;10339164;28;20470;-50
2024/01/21 15:04:10;;;;;;;6.35;3.00;;;;;;;;;;10338960;28;20034;-51
2024/01/21 15:09:12;;;;;;;5.03;3.20;;;;;;;;;;10338774;28;20030;-51
2024/01/21 15:14:56;;;;;;;4.43;2.97;;;;;;;;;;10339232;28;20041;-51
2024/01/21 15:19:57;;;;;;;3.47;3.00;;;;;;;;;;10334781;28;20039;-49
2024/01/21 15:24:59;;;;;;;3.67;2.80;;;;;;;;;;10338091;28;20089;-49
2024/01/21 15:30:01;;;;;;;3.83;3.05;;;;;;;;;;10336781;28;20034;-48
2024/01/21 15:35:04;;;;;;;4.80;2.95;;;;;;;;;;10352730;28;20057;-51
2024/01/21 15:40:07;;;;;;;3.92;2.58;;;;;;;;;;10337441;28;20042;-48
2024/01/21 15:45:12;;;;;;;3.78;3.13;;;;;;;;;;10337305;28;20027;-49
2024/01/21 15:50:15;;;;;;;4.07;2.92;;;;;;;;;;10337796;28;20084;-50
2024/01/21 15:55:17;;;;;;;25.13;3.42;;;;;;;;;;10336884;28;20030;-50
2024/01/21 16:00:19;;;;;;;7.75;3.60;;;;;;;;;;10336781;28;20026;-48
2024/01/21 16:05:21;;;;;;;10.02;3.50;;;;;;;;;;10336397;28;20038;-49
2024/01/21 16:10:22;;;;;;;5.72;4.00;;;;;;;;;;10336379;28;20077;-49
2024/01/21 16:15:24;;;;;;;20.15;3.78;;;;;;;;;;10336321;28;20038;-52
2024/01/21 16:20:26;;;;;;;11.45;4.35;;;;;;;;;;10336022;28;20034;-50
2024/01/21 16:25:28;;;;;;;16.90;3.95;;;;;;;;;;10335627;28;20030;-49
2024/01/21 16:30:30;;;;;;;11.32;4.78;;;;;;;;;;10335625;28;20034;-50
2024/01/21 16:35:32;;;;;;;12.52;3.85;;;;;;;;;;10335117;28;20496;-52
2024/01/21 16:40:33;;;;;;;7.63;3.35;;;;;;;;;;10334976;28;20023;-51
2024/01/21 16:45:35;;;;;;;19.63;3.92;;;;;;;;;;10335032;28;20068;-50
2024/01/21 16:50:37;;;;;;;9.05;3.30;;;;;;;;;;10334962;28;20110;-51
2024/01/21 16:55:42;;;;;;;12.60;3.35;;;;;;;;;;10334688;28;20026;-49
2024/01/21 17:00:45;;;;;;;7.82;3.58;;;;;;;;;;10335311;28;20030;-47
2024/01/21 17:05:47;;;;;;;9.38;3.40;;;;;;;;;;10334283;28;20076;-49
2024/01/21 17:11:03;;;;;;;18.70;3.15;;;;;;;;;;10334356;28;20030;-50
2024/01/21 17:16:05;;;;;;;9.73;3.28;;;;;;;;;;10334712;28;20026;-52
2024/01/21 17:21:06;;;;;;;6.00;3.35;;;;;;;;;;10333999;28;20449;-50
2024/01/21 17:26:09;;;;;;;13.70;3.42;;;;;;;;;;10333880;28;20022;-50
2024/01/21 17:31:10;;;;;;;6.45;3.17;;;;;;;;;;10333846;28;20052;-50
2024/01/21 17:36:14;;;;;;;10.65;3.80;;;;;;;;;;10333471;28;20049;-50
2024/01/21 17:41:15;;;;;;;8.40;3.30;;;;;;;;;;10333490;28;20530;-50
2024/01/21 17:46:18;;;;;;;8.82;3.13;;;;;;;;;;10334145;28;20085;-50
2024/01/21 17:51:20;;;;;;;10.75;3.95;;;;;;;;;;10334073;28;20029;-49
2024/01/21 17:56:22;;;;;;;11.32;2.97;;;;;;;;;;10339754;28;20109;-48
2024/01/21 18:01:23;;;;;;;6.95;3.20;;;;;;;;;;10341253;28;20054;-52
2024/01/21 18:06:28;;;;;;;8.63;3.33;;;;;;;;;;10341101;28;20026;-50
2024/01/21 18:11:29;;;;;;;10.00;2.95;;;;;;;;;;10340988;28;20034;-49
2024/01/21 18:16:32;;;;;;;5.13;3.15;;;;;;;;;;10341081;28;20049;-51
2024/01/21 18:21:36;;;;;;;5.75;3.58;;;;;;;;;;10340505;28;20037;-51
2024/01/21 18:26:37;;;;;;;9.20;4.05;;;;;;;;;;10340336;28;20034;-51
2024/01/21 18:31:41;;;;;;;7.40;3.83;;;;;;;;;;10340292;28;20410;-50
2024/01/21 18:36:42;;;;;;;6.70;3.67;;;;;;;;;;10339928;28;20047;-51
2024/01/21 18:41:44;;;;;;;6.72;3.17;;;;;;;;;;10339872;28;20489;-50
2024/01/21 18:46:49;;;;;;;13.75;3.40;;;;;;;;;;10339694;28;20041;-47
2024/01/21 18:51:53;;;;;;;7.00;3.35;;;;;;;;;;10339575;28;20092;-50
2024/01/21 18:56:54;;;;;;;6.57;3.50;;;;;;;;;;10339187;28;20100;-49
2024/01/21 19:01:56;;;;;;;6.30;3.20;;;;;;;;;;10339090;28;20377;-47
2024/01/21 19:06:58;;;;;;;5.55;3.33;;;;;;;;;;10338578;28;20022;-52
2024/01/21 19:11:59;;;;;;;6.60;3.42;;;;;;;;;;10338723;28;20034;-50
2024/01/21 19:17:01;;;;;;;5.38;3.35;;;;;;;;;;10338482;28;20018;-51
2024/01/21 19:22:03;;;;;;;8.00;3.70;;;;;;;;;;10338877;28;20107;-52
2024/01/21 19:27:05;;;;;;;4.28;3.35;;;;;;;;;;10338393;28;20030;-49
2024/01/21 19:32:07;;;;;;;7.75;3.20;;;;;;;;;;10337995;28;20026;-49
2024/01/21 19:37:08;;;;;;;6.75;3.65;;;;;;;;;;10337550;28;20057;-52
2024/01/21 19:42:10;;;;;;;4.38;3.22;;;;;;;;;;10338179;28;20030;-51
2024/01/21 19:47:12;;;;;;;7.22;3.50;;;;;;;;;;10337326;28;20105;-49
2024/01/21 19:52:14;;;;;;;3.58;3.10;;;;;;;;;;10337235;28;20089;-49
2024/01/21 19:57:16;;;;;;;5.32;3.15;;;;;;;;;;10336855;28;20422;-51
2024/01/21 20:02:17;;;;;;;5.97;3.75;;;;;;;;;;10336727;28;20053;-50
2024/01/21 20:07:21;;;;;;;4.53;3.25;;;;;;;;;;10336557;28;20081;-51
2024/01/21 20:12:22;;;;;;;5.30;3.38;;;;;;;;;;10336974;28;20037;-48
2024/01/21 20:17:24;;;;;;;5.72;3.15;;;;;;;;;;10335425;28;20022;-52
2024/01/21 20:22:25;;;;;;;5.55;3.50;;;;;;;;;;10335945;28;20077;-51
2024/01/21 20:27:27;;;;;;;11.15;3.42;;;;;;;;;;10335807;28;20037;-50
2024/01/21 20:32:29;;;;;;;5.95;3.63;;;;;;;;;;10335729;28;20026;-51
2024/01/21 20:37:31;;;;;;;4.65;3.60;;;;;;;;;;10335187;28;20064;-50
2024/01/21 20:42:32;;;;;;;4.72;3.65;;;;;;;;;;10335130;28;20429;-48
2024/01/21 20:47:34;;;;;;;4.63;3.20;;;;;;;;;;10336710;28;20022;-50
2024/01/21 20:52:36;;;;;;;4.97;3.30;;;;;;;;;;10335485;28;20549;-49
2024/01/21 20:57:37;;;;;;;4.15;3.25;;;;;;;;;;10334772;28;20525;-49
2024/01/21 21:02:39;;;;;;;5.95;3.60;;;;;;;;;;10334638;28;20440;-50
2024/01/21 21:07:41;;;;;;;4.57;3.47;;;;;;;;;;10334390;28;20034;-48
2024/01/21 21:12:43;;;;;;;5.78;3.67;;;;;;;;;;10334801;28;20041;-51
2024/01/21 21:17:46;;;;;;;8.68;5.35;;;;;;;;;;10334024;28;20030;-49
2024/01/21 21:22:47;;;;;;;9.45;5.93;;;;;;;;;;10334517;28;20529;-51
2024/01/21 21:27:49;;;;;;;8.77;5.95;;;;;;;;;;10334248;28;20115;-48
2024/01/21 21:32:51;;;;;;;7.60;6.03;;;;;;;;;;10333690;28;20026;-48
2024/01/21 21:37:55;;;;;;;7.70;5.57;;;;;;;;;;10333334;28;20058;-49
2024/01/21 21:42:56;;;;;;;7.82;5.90;;;;;;;;;;10333480;28;20034;-46
2024/01/21 21:47:58;;;;;;;7.60;5.82;;;;;;;;;;10333415;28;20113;-50
2024/01/21 21:52:59;;;;;;;11.82;6.70;;;;;;;;;;10333461;28;20027;-47
2024/01/21 21:58:00;;;;;;;6.82;5.13;;;;;;;;;;10333890;28;20023;-48
2024/01/21 22:03:02;;;;;;;7.70;5.60;;;;;;;;;;10333689;28;20089;-52
2024/01/21 22:08:05;;;;;;;7.60;5.95;;;;;;;;;;10333620;28;20101;-49
2024/01/21 22:13:06;;;;;;;10.38;5.80;;;;;;;;;;10333620;28;20101;-48
2024/01/21 22:18:10;;;;;;;10.30;6.00;;;;;;;;;;10333088;28;20030;-49
2024/01/21 22:23:12;;;;;;;8.07;5.45;;;;;;;;;;10332754;28;20156;-46
2024/01/21 22:28:14;;;;;;;7.93;5.35;;;;;;;;;;10332681;28;20038;-50
2024/01/21 22:33:15;;;;;;;9.40;5.82;;;;;;;;;;10333286;28;20026;-51
2024/01/21 22:38:17;;;;;;;7.72;5.45;;;;;;;;;;10332320;28;20046;-49
2024/01/21 22:43:20;;;;;;;6.80;5.13;;;;;;;;;;10339660;28;20033;-51
2024/01/21 22:48:22;;;;;;;8.43;5.47;;;;;;;;;;10340216;28;20034;-50
2024/01/21 22:53:24;;;;;;;13.95;6.70;;;;;;;;;;10339522;28;20351;-49
2024/01/21 22:58:26;;;;;;;10.25;5.68;;;;;;;;;;10339324;28;20036;-49
2024/01/21 23:03:28;;;;;;;14.93;6.22;;;;;;;;;;10338934;28;20057;-56
2024/01/21 23:08:30;;;;;;;18.10;5.72;;;;;;;;;;10339439;28;20030;-51
2024/01/21 23:13:32;;;;;;;9.45;6.60;;;;;;;;;;10338727;28;20030;-52
2024/01/21 23:18:33;;;;;;;12.65;5.80;;;;;;;;;;10339055;28;20027;-52
2024/01/21 23:23:35;;;;;;;8.48;6.18;;;;;;;;;;10338301;28;20085;-50
2024/01/21 23:28:36;;;;;;;9.75;6.45;;;;;;;;;;10338057;28;20374;-48
2024/01/21 23:33:37;;;;;;;8.13;5.93;;;;;;;;;;10338582;28;20110;-52
2024/01/21 23:38:39;;;;;;;13.30;6.32;;;;;;;;;;10337447;28;20050;-48
2024/01/21 23:43:41;;;;;;;10.70;5.75;;;;;;;;;;10337530;28;20030;-51
2024/01/21 23:48:42;;;;;;;8.65;6.03;;;;;;;;;;10337303;28;20128;-53
2024/01/21 23:53:44;;;;;;;11.45;5.88;;;;;;;;;;10336113;28;20054;-51
2024/01/21 23:58:46;;;;;;;10.93;5.88;;;;;;;;;;10337512;28;20030;-50
